Aurora, Colorado
Current Conditions -  °F | °C
As of 5:58 PM on Wednesday 26 Nov 2014 (Local Time) from KBKF Reporting Station
Scattered Clouds Scattered Clouds  
Wind Chill: 21°   Ceiling: Unl
Heat Index: 29°   Visibility: 10mi
Dew Point: 25°   Wind: 8mph
Humidity: 83%   Direction: 140°SE
Pressure: 30.22"   Gusts: NA
Location:  39.69°N, 104.86°W
Report Text: KBKF 270058Z 14007KT 10SM FEW110 SCT220 M02/M04 A3022 RMK AO2A SLP262 T10161041
Loading
Personal Weather Stations






























Interactive Weather Map New forecast layout! Learn more

10-Day Weather Forecast

Advertisements
Track Severe Weather on mobile